createdAt,value
2023-01-29T00:01:47.942Z,62.24
2023-01-29T00:04:14.470Z,62.05
2023-01-29T00:06:40.930Z,61.86
2023-01-29T00:09:07.527Z,61.57
2023-01-29T00:11:34.939Z,62.17
2023-01-29T00:14:01.356Z,62.19
2023-01-29T00:16:27.874Z,61.79
2023-01-29T00:18:54.417Z,61.30
2023-01-29T00:21:22.265Z,60.82
2023-01-29T00:23:49.417Z,61.39
2023-01-29T00:26:17.138Z,61.69
2023-01-29T00:28:44.003Z,61.91
2023-01-29T00:31:15.675Z,61.89
2023-01-29T00:33:42.091Z,61.54
2023-01-29T00:36:11.329Z,61.49
2023-01-29T00:38:38.755Z,61.17
2023-01-29T00:41:34.399Z,61.27
2023-01-29T00:44:20.314Z,61.32
2023-01-29T00:46:46.969Z,61.89
2023-01-29T00:49:13.685Z,60.95
2023-01-29T00:51:40.338Z,61.41
2023-01-29T00:54:07.004Z,62.06
2023-01-29T00:56:37.513Z,60.66
2023-01-29T00:59:04.548Z,60.59
2023-01-29T01:01:49.928Z,60.89
2023-01-29T01:04:16.598Z,61.07
2023-01-29T01:06:43.137Z,61.54
2023-01-29T01:09:29.167Z,61.41
2023-01-29T01:11:55.663Z,61.01
2023-01-29T01:14:22.683Z,61.87
2023-01-29T01:16:49.794Z,61.55
2023-01-29T01:19:16.722Z,61.47
2023-01-29T01:21:45.561Z,60.82
2023-01-29T01:24:12.707Z,60.75
2023-01-29T01:26:39.181Z,61.28
2023-01-29T01:29:05.703Z,60.93
2023-01-29T01:31:32.200Z,61.61
2023-01-29T01:33:58.689Z,61.30
2023-01-29T01:36:25.143Z,60.78
2023-01-29T01:38:51.629Z,60.81
2023-01-29T01:41:21.770Z,60.88
2023-01-29T01:43:57.826Z,60.69
2023-01-29T01:46:28.262Z,60.55
2023-01-29T01:49:05.764Z,60.83
2023-01-29T01:51:36.325Z,60.71
2023-01-29T01:54:25.089Z,61.17
2023-01-29T01:56:55.636Z,61.05
2023-01-29T01:59:22.957Z,60.26
2023-01-29T02:01:54.011Z,60.33
2023-01-29T02:04:42.158Z,59.71
2023-01-29T02:07:31.117Z,60.56
2023-01-29T02:10:08.368Z,60.86
2023-01-29T02:12:36.923Z,60.24
2023-01-29T02:15:03.924Z,60.58
2023-01-29T02:17:31.333Z,60.03
2023-01-29T02:20:18.662Z,60.56
2023-01-29T02:22:55.385Z,60.91
2023-01-29T02:25:52.686Z,60.45
2023-01-29T02:28:36.544Z,60.83
2023-01-29T02:31:21.268Z,60.58
2023-01-29T02:34:06.329Z,60.78
2023-01-29T02:37:02.739Z,60.41
2023-01-29T02:39:34.125Z,59.37
2023-01-29T02:42:06.767Z,59.30
2023-01-29T02:44:50.963Z,59.44
2023-01-29T02:47:36.060Z,59.92
2023-01-29T02:50:21.149Z,60.27
2023-01-29T02:52:59.752Z,60.41
2023-01-29T02:55:32.569Z,61.38
2023-01-29T02:58:07.492Z,61.26
2023-01-29T03:00:39.572Z,60.96
2023-01-29T03:03:17.655Z,60.48
2023-01-29T03:06:07.568Z,57.84
2023-01-29T03:08:42.978Z,58.27
2023-01-29T03:11:15.307Z,58.91
2023-01-29T03:13:57.926Z,58.28
2023-01-29T03:16:28.056Z,57.88
2023-01-29T03:19:02.870Z,57.78
2023-01-29T03:21:55.245Z,58.37
2023-01-29T03:24:51.119Z,57.46
2023-01-29T03:27:40.786Z,57.80
2023-01-29T03:30:28.770Z,58.42
2023-01-29T03:32:57.647Z,59.51
2023-01-29T03:35:36.908Z,58.75
2023-01-29T03:38:06.205Z,58.76
2023-01-29T03:40:53.655Z,57.47
2023-01-29T03:43:35.064Z,57.68
2023-01-29T03:46:29.198Z,57.63
2023-01-29T03:49:14.517Z,58.11
2023-01-29T03:51:59.126Z,58.31
2023-01-29T03:54:35.157Z,58.20
2023-01-29T03:57:41.671Z,57.55
2023-01-29T04:03:24.629Z,58.28
2023-01-29T04:05:58.622Z,58.71
2023-01-29T04:08:30.786Z,58.68
2023-01-29T04:11:02.031Z,58.61
2023-01-29T04:13:33.829Z,58.90
2023-01-29T04:16:04.174Z,58.33
2023-01-29T04:18:30.703Z,58.86
2023-01-29T04:20:57.338Z,59.07
2023-01-29T04:23:26.514Z,56.98
2023-01-29T04:26:29.800Z,56.75
2023-01-29T04:29:15.276Z,57.29
2023-01-29T04:31:57.811Z,56.16
2023-01-29T04:34:29.161Z,56.72
2023-01-29T04:37:12.146Z,56.64
2023-01-29T04:39:54.793Z,56.51
2023-01-29T04:42:37.069Z,56.68
2023-01-29T04:45:25.846Z,57.27
2023-01-29T04:47:54.965Z,57.65
2023-01-29T04:50:28.361Z,56.70
2023-01-29T04:53:07.932Z,56.02
2023-01-29T04:55:47.460Z,56.56
2023-01-29T04:58:26.543Z,56.25
2023-01-29T05:00:55.828Z,56.73
2023-01-29T05:03:25.977Z,56.86
2023-01-29T05:05:55.221Z,56.83
2023-01-29T05:08:24.628Z,56.75
2023-01-29T05:10:54.806Z,56.10
2023-01-29T05:13:23.659Z,56.55
2023-01-29T05:16:16.950Z,56.05
2023-01-29T05:18:43.727Z,56.29
2023-01-29T05:21:10.170Z,56.35
2023-01-29T05:23:37.077Z,56.70
2023-01-29T05:26:04.413Z,56.23
2023-01-29T05:28:30.977Z,56.80
2023-01-29T05:30:58.185Z,56.06
2023-01-29T05:33:29.918Z,55.95
2023-01-29T05:35:58.733Z,55.89
2023-01-29T05:38:25.477Z,56.24
2023-01-29T05:40:51.920Z,57.05
2023-01-29T05:43:23.828Z,56.68
2023-01-29T05:45:54.174Z,57.12
2023-01-29T05:48:20.788Z,56.17
2023-01-29T05:50:47.200Z,56.57
2023-01-29T05:53:13.723Z,56.24
2023-01-29T05:55:40.098Z,56.72
2023-01-29T05:58:06.657Z,57.11
2023-01-29T06:00:33.067Z,56.83
2023-01-29T06:02:59.979Z,57.14
2023-01-29T06:05:26.462Z,57.20
2023-01-29T06:07:52.839Z,56.93
2023-01-29T06:10:19.702Z,56.67
2023-01-29T06:12:46.224Z,57.28
2023-01-29T06:15:13.096Z,56.31
2023-01-29T06:17:39.687Z,56.87
2023-01-29T06:20:06.757Z,56.64
2023-01-29T06:22:33.716Z,56.98
2023-01-29T06:25:00.435Z,56.81
2023-01-29T06:27:26.947Z,56.70
2023-01-29T06:29:53.330Z,57.43
2023-01-29T06:32:19.863Z,57.48
2023-01-29T06:34:48.617Z,57.15
2023-01-29T06:37:16.037Z,57.95
2023-01-29T06:39:42.620Z,57.16
2023-01-29T06:42:10.052Z,56.62
2023-01-29T06:44:36.877Z,57.22
2023-01-29T06:47:03.357Z,56.86
2023-01-29T06:49:29.889Z,56.89
2023-01-29T06:51:56.708Z,56.61
2023-01-29T06:54:23.235Z,56.84
2023-01-29T06:56:49.706Z,57.06
2023-01-29T06:59:16.330Z,56.22
2023-01-29T07:01:44.272Z,56.09
2023-01-29T07:04:11.479Z,56.20
2023-01-29T07:06:38.032Z,56.21
2023-01-29T07:09:04.908Z,55.42
2023-01-29T07:11:32.043Z,56.29
2023-01-29T07:13:58.654Z,56.23
2023-01-29T07:16:26.262Z,55.98
2023-01-29T07:18:53.092Z,56.34
2023-01-29T07:21:19.537Z,56.14
2023-01-29T07:23:46.504Z,56.60
2023-01-29T07:26:12.995Z,57.23
2023-01-29T07:28:40.891Z,56.10
2023-01-29T07:31:08.571Z,56.27
2023-01-29T07:33:35.257Z,55.82
2023-01-29T07:36:01.890Z,56.12
2023-01-29T07:38:28.344Z,56.11
2023-01-29T07:40:55.047Z,56.21
2023-01-29T07:43:21.556Z,56.28
2023-01-29T07:45:48.055Z,55.97
2023-01-29T07:48:14.664Z,55.74
2023-01-29T07:50:41.766Z,55.38
2023-01-29T07:53:15.975Z,55.08
2023-01-29T07:55:45.695Z,54.64
2023-01-29T07:58:13.521Z,54.73
2023-01-29T08:00:40.248Z,54.20
2023-01-29T08:03:11.488Z,54.93
2023-01-29T08:05:38.157Z,54.00
2023-01-29T08:08:07.322Z,53.72
2023-01-29T08:10:38.574Z,53.83
2023-01-29T08:13:05.882Z,54.32
2023-01-29T08:15:35.184Z,53.86
2023-01-29T08:18:05.529Z,53.39
2023-01-29T08:20:32.091Z,54.77
2023-01-29T08:23:04.521Z,54.82
2023-01-29T08:25:31.416Z,54.13
2023-01-29T08:27:59.296Z,52.95
2023-01-29T08:30:27.851Z,52.89
2023-01-29T08:32:56.120Z,52.91
2023-01-29T08:35:23.227Z,52.22
2023-01-29T08:37:59.355Z,51.50
2023-01-29T08:40:27.408Z,51.54
2023-01-29T08:43:02.512Z,51.55
2023-01-29T08:45:34.715Z,51.13
2023-01-29T08:48:01.529Z,50.30
2023-01-29T08:50:30.622Z,51.10
2023-01-29T08:52:59.196Z,50.11
2023-01-29T08:55:26.467Z,50.19
2023-01-29T08:57:52.949Z,49.76
2023-01-29T09:00:19.934Z,49.04
2023-01-29T09:02:46.615Z,51.15
2023-01-29T09:05:13.092Z,51.11
2023-01-29T09:07:39.550Z,50.99
2023-01-29T09:10:06.240Z,50.86
2023-01-29T09:12:32.673Z,49.67
2023-01-29T09:14:59.229Z,49.44
2023-01-29T09:17:25.733Z,48.98
2023-01-29T09:19:53.071Z,49.18
2023-01-29T09:22:20.421Z,49.49
2023-01-29T09:24:46.982Z,49.02
2023-01-29T09:27:13.440Z,47.84
2023-01-29T09:29:39.973Z,48.53
2023-01-29T09:32:06.879Z,48.50
2023-01-29T09:34:33.953Z,49.12
2023-01-29T09:37:00.411Z,48.85
2023-01-29T09:39:26.894Z,48.16
2023-01-29T09:42:11.511Z,48.47
2023-01-29T09:45:14.028Z,48.93
2023-01-29T09:47:40.663Z,49.78
2023-01-29T09:50:32.873Z,50.32
2023-01-29T09:53:07.324Z,49.73
2023-01-29T09:55:42.063Z,47.90
2023-01-29T09:58:25.732Z,46.83
2023-01-29T10:01:08.051Z,47.05
2023-01-29T10:03:55.193Z,46.83
2023-01-29T10:06:27.602Z,46.50
2023-01-29T10:09:18.347Z,46.19
2023-01-29T10:12:23.458Z,45.57
2023-01-29T10:15:12.105Z,45.83
2023-01-29T10:18:03.006Z,46.30
2023-01-29T10:20:44.161Z,46.46
2023-01-29T10:23:35.494Z,44.98
2023-01-29T10:26:02.260Z,46.88
2023-01-29T10:28:38.081Z,46.28
2023-01-29T10:31:11.559Z,46.81
2023-01-29T10:33:54.533Z,44.97
2023-01-29T10:36:35.887Z,43.00
2023-01-29T10:39:02.448Z,40.76
2023-01-29T10:41:44.668Z,40.32
2023-01-29T10:44:29.974Z,42.13
2023-01-29T10:47:12.502Z,42.89
2023-01-29T10:49:57.706Z,44.64
2023-01-29T10:52:33.076Z,43.79
2023-01-29T10:55:27.423Z,43.08
2023-01-29T10:58:15.637Z,42.26
2023-01-29T11:00:42.681Z,41.33
2023-01-29T11:03:26.856Z,40.12
2023-01-29T11:06:05.120Z,39.58
2023-01-29T11:08:41.626Z,39.11
2023-01-29T11:11:19.043Z,40.41
2023-01-29T11:14:05.151Z,39.84
2023-01-29T11:16:33.369Z,39.84
2023-01-29T11:19:01.145Z,40.34
2023-01-29T11:21:29.266Z,41.64
2023-01-29T11:24:15.773Z,44.52
2023-01-29T11:26:43.551Z,43.80
2023-01-29T11:29:34.463Z,41.97
2023-01-29T11:32:05.477Z,42.38
2023-01-29T11:34:31.927Z,40.69
2023-01-29T11:37:06.936Z,40.00
2023-01-29T11:39:33.404Z,39.35
2023-01-29T11:42:04.755Z,39.76
2023-01-29T11:44:41.036Z,39.69
2023-01-29T11:47:16.237Z,39.97
2023-01-29T11:49:51.276Z,41.04
2023-01-29T11:52:20.808Z,42.04
2023-01-29T11:54:58.346Z,41.92
2023-01-29T11:57:30.290Z,44.18
2023-01-29T12:00:06.745Z,43.56
2023-01-29T12:02:38.749Z,43.05
2023-01-29T12:05:18.033Z,44.32
2023-01-29T12:07:50.353Z,44.93
2023-01-29T12:10:41.042Z,43.12
2023-01-29T12:13:21.450Z,42.97
2023-01-29T12:15:49.172Z,43.03
2023-01-29T12:18:37.748Z,42.74
2023-01-29T12:21:05.063Z,41.83
2023-01-29T12:23:32.256Z,43.06
2023-01-29T12:26:01.702Z,46.14
2023-01-29T12:29:15.852Z,47.67
2023-01-29T12:32:11.362Z,45.83
2023-01-29T12:35:17.288Z,45.05
2023-01-29T12:38:21.720Z,44.57
2023-01-29T12:40:55.245Z,45.43
2023-01-29T12:43:32.762Z,44.24
2023-01-29T12:46:01.471Z,45.29
2023-01-29T12:48:33.045Z,46.36
2023-01-29T12:51:20.654Z,44.89
2023-01-29T12:54:21.649Z,46.77
2023-01-29T12:56:53.069Z,49.92
2023-01-29T12:59:31.710Z,49.46
2023-01-29T13:02:11.283Z,46.41
2023-01-29T13:04:48.650Z,45.40
2023-01-29T13:07:20.709Z,46.71
2023-01-29T13:09:53.035Z,46.00
2023-01-29T13:12:21.547Z,45.33
2023-01-29T13:15:06.739Z,45.03
2023-01-29T13:17:38.026Z,46.29
2023-01-29T13:20:21.159Z,46.81
2023-01-29T13:22:50.411Z,46.79
2023-01-29T13:25:22.231Z,45.99
2023-01-29T13:27:49.418Z,46.02
2023-01-29T13:30:30.539Z,45.96
2023-01-29T13:33:09.434Z,45.48
2023-01-29T13:35:42.860Z,45.61
2023-01-29T13:38:26.842Z,45.17
2023-01-29T13:40:56.651Z,45.07
2023-01-29T13:43:24.036Z,44.45
2023-01-29T13:45:53.918Z,45.95
2023-01-29T13:48:26.879Z,48.16
2023-01-29T13:50:56.394Z,48.64
2023-01-29T13:53:27.276Z,49.40
2023-01-29T13:55:53.736Z,48.86
2023-01-29T13:58:32.061Z,48.18
2023-01-29T14:01:01.478Z,52.67
2023-01-29T14:03:29.938Z,51.39
2023-01-29T14:06:02.587Z,49.93
2023-01-29T14:08:35.124Z,48.69
2023-01-29T14:11:35.057Z,52.25
2023-01-29T14:14:01.566Z,53.66
2023-01-29T14:16:34.910Z,52.40
2023-01-29T14:19:04.643Z,52.27
2023-01-29T14:21:33.962Z,53.76
2023-01-29T14:24:18.394Z,53.77
2023-01-29T14:26:47.653Z,51.98
2023-01-29T14:29:35.084Z,53.95
2023-01-29T14:32:07.635Z,52.40
2023-01-29T14:34:41.586Z,52.88
2023-01-29T14:37:17.067Z,51.56
2023-01-29T14:39:56.217Z,52.04
2023-01-29T14:42:24.697Z,51.98
2023-01-29T14:44:57.258Z,50.50
2023-01-29T14:47:33.021Z,50.87
2023-01-29T14:50:01.807Z,51.69
2023-01-29T14:52:43.041Z,52.99
2023-01-29T14:55:20.992Z,52.15
2023-01-29T14:57:49.151Z,51.32
2023-01-29T15:00:27.351Z,50.74
2023-01-29T15:03:02.003Z,50.54
2023-01-29T15:05:35.893Z,51.38
2023-01-29T15:08:19.964Z,51.54
2023-01-29T15:11:13.589Z,53.00
2023-01-29T15:13:58.612Z,54.09
2023-01-29T15:16:31.228Z,53.41
2023-01-29T15:19:12.861Z,53.23
2023-01-29T15:21:39.341Z,53.11
2023-01-29T15:24:07.091Z,54.15
2023-01-29T15:26:35.871Z,54.29
2023-01-29T15:29:04.578Z,54.30
2023-01-29T15:31:32.128Z,53.93
2023-01-29T15:34:04.994Z,53.09
2023-01-29T15:36:32.111Z,53.52
2023-01-29T15:39:23.499Z,54.17
2023-01-29T15:41:52.100Z,55.21
2023-01-29T15:44:21.782Z,54.74
2023-01-29T15:46:57.821Z,54.68
2023-01-29T15:49:31.078Z,54.64
2023-01-29T15:52:04.467Z,55.61
2023-01-29T15:54:33.033Z,55.83
2023-01-29T15:57:00.596Z,55.82
2023-01-29T15:59:34.678Z,55.49
2023-01-29T16:02:32.860Z,56.23
2023-01-29T16:04:59.878Z,55.99
2023-01-29T16:07:27.629Z,56.70
2023-01-29T16:09:55.464Z,57.23
2023-01-29T16:12:22.726Z,57.02
2023-01-29T16:14:50.416Z,58.07
2023-01-29T16:17:40.789Z,58.28
2023-01-29T16:20:28.295Z,58.53
2023-01-29T16:22:54.892Z,60.01
2023-01-29T16:25:21.423Z,60.75
2023-01-29T16:27:48.039Z,60.75
2023-01-29T16:30:16.483Z,60.32
2023-01-29T16:32:43.145Z,60.58
2023-01-29T16:35:16.554Z,60.51
2023-01-29T16:37:48.596Z,60.97
2023-01-29T16:40:37.654Z,61.34
2023-01-29T16:43:19.375Z,61.38
2023-01-29T16:46:05.847Z,61.58
2023-01-29T16:48:35.175Z,61.40
2023-01-29T16:51:26.718Z,62.12
2023-01-29T16:54:01.696Z,62.69
2023-01-29T16:56:31.062Z,63.19
2023-01-29T16:58:58.625Z,63.28
2023-01-29T17:01:28.595Z,64.23
2023-01-29T17:04:09.984Z,63.98
2023-01-29T17:06:36.816Z,64.42
2023-01-29T17:09:04.677Z,64.07
2023-01-29T17:11:41.729Z,65.19
2023-01-29T17:14:09.574Z,65.40
2023-01-29T17:16:46.742Z,65.72
2023-01-29T17:19:18.426Z,66.14
2023-01-29T17:21:45.129Z,66.44
2023-01-29T17:24:11.589Z,65.48
2023-01-29T17:26:39.030Z,64.79
2023-01-29T17:29:05.531Z,65.20
2023-01-29T17:31:32.049Z,65.07
2023-01-29T17:33:58.457Z,65.20
2023-01-29T17:36:25.783Z,65.18
2023-01-29T17:38:52.227Z,65.46
2023-01-29T17:41:25.176Z,65.47
2023-01-29T17:43:51.821Z,66.82
2023-01-29T17:46:19.447Z,66.41
2023-01-29T17:48:46.654Z,66.37
2023-01-29T17:51:16.087Z,65.85
2023-01-29T17:53:45.971Z,64.85
2023-01-29T17:56:23.831Z,64.15
2023-01-29T17:58:50.395Z,65.15
2023-01-29T18:01:16.799Z,64.69
2023-01-29T18:03:43.515Z,64.77
2023-01-29T18:06:24.300Z,64.35
2023-01-29T18:08:50.755Z,64.86
2023-01-29T18:11:17.303Z,65.57
2023-01-29T18:13:43.697Z,65.10
2023-01-29T18:16:10.168Z,65.42
2023-01-29T18:18:36.691Z,65.63
2023-01-29T18:21:03.226Z,65.99
2023-01-29T18:23:31.302Z,66.32
2023-01-29T18:25:57.823Z,65.85
2023-01-29T18:28:24.718Z,65.34
2023-01-29T18:30:51.266Z,65.39
2023-01-29T18:33:18.075Z,65.97
2023-01-29T18:35:45.260Z,66.36
2023-01-29T18:38:12.720Z,66.38
2023-01-29T18:40:39.425Z,66.82
2023-01-29T18:43:06.057Z,67.16
2023-01-29T18:45:32.681Z,67.07
2023-01-29T18:47:59.283Z,66.49
2023-01-29T18:50:26.440Z,66.55
2023-01-29T18:52:55.499Z,66.84
2023-01-29T18:55:22.854Z,67.90
2023-01-29T18:58:26.084Z,67.60
2023-01-29T19:00:43.771Z,67.44
2023-01-29T19:03:10.680Z,68.07
2023-01-29T19:05:37.275Z,68.83
2023-01-29T19:08:05.282Z,68.22
2023-01-29T19:10:31.738Z,68.14
2023-01-29T19:12:58.423Z,66.86
2023-01-29T19:15:25.018Z,67.92
2023-01-29T19:17:51.650Z,68.08
2023-01-29T19:20:18.339Z,67.86
2023-01-29T19:22:45.116Z,68.58
2023-01-29T19:25:12.814Z,68.22
2023-01-29T19:27:39.450Z,67.12
2023-01-29T19:30:06.349Z,69.11
2023-01-29T19:32:33.341Z,67.73
2023-01-29T19:34:59.781Z,68.09
2023-01-29T19:37:26.217Z,68.95
2023-01-29T19:39:53.806Z,68.70
2023-01-29T19:42:20.945Z,68.43
2023-01-29T19:44:47.653Z,68.45
2023-01-29T19:47:14.178Z,69.80
2023-01-29T19:49:40.664Z,68.91
2023-01-29T19:52:14.882Z,69.19
2023-01-29T19:54:46.074Z,67.71
2023-01-29T19:57:12.501Z,68.98
2023-01-29T19:59:39.207Z,67.41
2023-01-29T20:02:06.259Z,67.77
2023-01-29T20:04:32.860Z,68.33
2023-01-29T20:06:59.551Z,67.68
2023-01-29T20:09:26.119Z,69.56
2023-01-29T20:11:52.563Z,70.29
2023-01-29T20:14:19.017Z,69.91
2023-01-29T20:16:45.411Z,69.73
2023-01-29T20:19:14.011Z,70.08
2023-01-29T20:21:41.825Z,69.90
2023-01-29T20:24:12.375Z,68.92
2023-01-29T20:26:39.093Z,68.92
2023-01-29T20:29:06.493Z,68.53
2023-01-29T20:31:33.285Z,69.46
2023-01-29T20:33:59.807Z,69.82
2023-01-29T20:36:26.334Z,68.38
2023-01-29T20:38:52.793Z,68.79
2023-01-29T20:41:19.856Z,68.48
2023-01-29T20:43:47.059Z,68.75
2023-01-29T20:46:14.182Z,67.58
2023-01-29T20:48:42.006Z,66.55
2023-01-29T20:51:13.062Z,66.70
2023-01-29T20:53:41.121Z,67.07
2023-01-29T20:56:08.950Z,66.71
2023-01-29T20:58:37.566Z,66.16
2023-01-29T21:01:12.188Z,66.10
2023-01-29T21:03:39.836Z,65.93
2023-01-29T21:06:08.575Z,66.47
2023-01-29T21:08:35.841Z,67.33
2023-01-29T21:11:03.332Z,66.59
2023-01-29T21:13:29.856Z,67.67
2023-01-29T21:15:56.340Z,66.39
2023-01-29T21:18:22.933Z,66.78
2023-01-29T21:20:50.152Z,66.02
2023-01-29T21:23:16.717Z,66.29
2023-01-29T21:25:43.211Z,66.33
2023-01-29T21:28:09.689Z,66.79
2023-01-29T21:30:36.209Z,66.47
2023-01-29T21:33:03.266Z,67.68
2023-01-29T21:35:29.836Z,67.72
2023-01-29T21:37:56.312Z,68.68
2023-01-29T21:40:25.196Z,69.69
2023-01-29T21:43:10.698Z,70.29
2023-01-29T21:45:38.529Z,69.96
2023-01-29T21:48:05.598Z,70.17
2023-01-29T21:50:32.384Z,71.16
2023-01-29T21:52:58.806Z,70.35
2023-01-29T21:55:25.406Z,71.25
2023-01-29T21:57:52.028Z,71.48
2023-01-29T22:00:19.260Z,71.25
2023-01-29T22:02:46.416Z,70.44
2023-01-29T22:05:19.323Z,70.85
2023-01-29T22:07:46.868Z,69.79
2023-01-29T22:10:13.640Z,70.11
2023-01-29T22:12:40.489Z,70.28
2023-01-29T22:15:08.182Z,70.42
2023-01-29T22:17:35.293Z,70.45
2023-01-29T22:20:01.968Z,69.71
2023-01-29T22:22:28.616Z,69.89
2023-01-29T22:24:56.399Z,68.61
2023-01-29T22:27:22.869Z,68.33
2023-01-29T22:29:49.322Z,69.45
2023-01-29T22:32:16.275Z,70.49
2023-01-29T22:34:42.705Z,71.23
2023-01-29T22:37:09.309Z,70.87
2023-01-29T22:39:35.715Z,71.10
2023-01-29T22:42:02.196Z,71.09
2023-01-29T22:44:28.652Z,70.43
2023-01-29T22:46:55.097Z,70.42
2023-01-29T22:49:21.531Z,71.39
2023-01-29T22:51:48.111Z,71.61
2023-01-29T22:54:15.523Z,71.41
2023-01-29T22:56:42.052Z,71.37
2023-01-29T22:59:10.121Z,71.08
2023-01-29T23:01:36.725Z,70.71
2023-01-29T23:04:03.227Z,69.15
2023-01-29T23:06:29.710Z,69.88
2023-01-29T23:08:56.161Z,71.00
2023-01-29T23:11:23.541Z,70.14
2023-01-29T23:13:52.545Z,69.79
2023-01-29T23:16:21.122Z,68.44
2023-01-29T23:18:49.785Z,68.36
2023-01-29T23:21:16.257Z,67.36
2023-01-29T23:23:44.936Z,67.60
2023-01-29T23:26:30.945Z,67.17
2023-01-29T23:28:57.682Z,66.49
2023-01-29T23:31:24.537Z,66.72
2023-01-29T23:33:51.045Z,67.68
2023-01-29T23:36:17.618Z,69.30
2023-01-29T23:38:44.094Z,69.30
2023-01-29T23:41:10.608Z,68.44
2023-01-29T23:43:37.020Z,68.28
2023-01-29T23:46:03.397Z,68.58
2023-01-29T23:48:29.924Z,69.81
2023-01-29T23:50:56.414Z,70.58
2023-01-29T23:53:22.932Z,70.59
2023-01-29T23:56:00.193Z,71.88
2023-01-29T23:58:26.703Z,71.56
